Baie Comeau Airport

CYBC | YBC

Baie-Comeau , Quebec , Canada

Thursday, June 4th, 2020 | 20:49

Weather

CYBC 050000Z AUTO 24008KT 9SM CLR 11/06 A2960 RMK SLP026

Charts

No Charts Available

Gates

No Gates Available

Runways

1 Available

Active ATC

Events -Coming Soon-

1 Events Coming Up Soon

Next event:
CYBC Flyout